sensor_id;sensor_type;location;lat;lon;timestamp;temperature;humidity
12287;DHT22;6206;53.100;11.098;2022-12-18T00:01:40;-1.50;99.90
12287;DHT22;6206;53.100;11.098;2022-12-18T00:04:07;-1.60;99.90
12287;DHT22;6206;53.100;11.098;2022-12-18T00:06:41;-1.50;99.90
12287;DHT22;6206;53.100;11.098;2022-12-18T00:09:08;-1.60;99.90
12287;DHT22;6206;53.100;11.098;2022-12-18T00:11:35;-1.80;99.90
12287;DHT22;6206;53.100;11.098;2022-12-18T00:14:01;-1.80;99.90
12287;DHT22;6206;53.100;11.098;2022-12-18T00:16:28;-1.80;99.90
12287;DHT22;6206;53.100;11.098;2022-12-18T00:18:58;-1.80;99.90
12287;DHT22;6206;53.100;11.098;2022-12-18T00:21:24;-1.80;99.90
12287;DHT22;6206;53.100;11.098;2022-12-18T00:23:52;-1.80;99.90
12287;DHT22;6206;53.100;11.098;2022-12-18T00:26:20;-1.90;99.90
12287;DHT22;6206;53.100;11.098;2022-12-18T00:28:47;-2.00;99.90
12287;DHT22;6206;53.100;11.098;2022-12-18T00:31:14;-2.00;99.90
12287;DHT22;6206;53.100;11.098;2022-12-18T00:33:42;-2.00;99.90
12287;DHT22;6206;53.100;11.098;2022-12-18T00:36:10;-2.00;99.90
12287;DHT22;6206;53.100;11.098;2022-12-18T00:38:38;-2.00;99.90
12287;DHT22;6206;53.100;11.098;2022-12-18T00:41:06;-2.00;99.90
12287;DHT22;6206;53.100;11.098;2022-12-18T00:43:33;-2.00;99.90
12287;DHT22;6206;53.100;11.098;2022-12-18T00:45:59;-2.00;99.90
12287;DHT22;6206;53.100;11.098;2022-12-18T00:48:26;-2.10;99.90
12287;DHT22;6206;53.100;11.098;2022-12-18T00:50:52;-2.10;99.90
12287;DHT22;6206;53.100;11.098;2022-12-18T00:53:19;-2.20;99.90
12287;DHT22;6206;53.100;11.098;2022-12-18T00:55:45;-2.20;99.90
12287;DHT22;6206;53.100;11.098;2022-12-18T00:58:14;-2.20;99.90
12287;DHT22;6206;53.100;11.098;2022-12-18T01:00:41;-2.10;99.90
12287;DHT22;6206;53.100;11.098;2022-12-18T01:05:38;-2.10;99.90
12287;DHT22;6206;53.100;11.098;2022-12-18T01:08:05;-2.30;99.90
12287;DHT22;6206;53.100;11.098;2022-12-18T01:10:31;-2.30;99.90
12287;DHT22;6206;53.100;11.098;2022-12-18T01:12:58;-2.40;99.90
12287;DHT22;6206;53.100;11.098;2022-12-18T01:15:26;-2.40;99.90
12287;DHT22;6206;53.100;11.098;2022-12-18T01:17:53;-2.40;99.90
12287;DHT22;6206;53.100;11.098;2022-12-18T01:20:19;-2.30;99.90
12287;DHT22;6206;53.100;11.098;2022-12-18T01:22:46;-2.30;99.90
12287;DHT22;6206;53.100;11.098;2022-12-18T01:25:12;-2.30;99.90
12287;DHT22;6206;53.100;11.098;2022-12-18T01:27:39;-2.30;99.90
12287;DHT22;6206;53.100;11.098;2022-12-18T01:32:34;-2.20;99.90
12287;DHT22;6206;53.100;11.098;2022-12-18T01:35:00;-2.10;99.90
12287;DHT22;6206;53.100;11.098;2022-12-18T01:37:27;-2.20;99.90
12287;DHT22;6206;53.100;11.098;2022-12-18T01:39:54;-2.30;99.90
12287;DHT22;6206;53.100;11.098;2022-12-18T01:42:21;-2.40;99.90
12287;DHT22;6206;53.100;11.098;2022-12-18T01:49:58;-2.40;99.90
12287;DHT22;6206;53.100;11.098;2022-12-18T01:52:26;-2.50;99.90
12287;DHT22;6206;53.100;11.098;2022-12-18T01:54:54;-2.50;99.90
12287;DHT22;6206;53.100;11.098;2022-12-18T01:57:21;-2.50;99.90
12287;DHT22;6206;53.100;11.098;2022-12-18T02:02:15;-2.50;99.90
12287;DHT22;6206;53.100;11.098;2022-12-18T02:04:42;-2.50;99.90
12287;DHT22;6206;53.100;11.098;2022-12-18T02:07:10;-2.40;99.90
12287;DHT22;6206;53.100;11.098;2022-12-18T02:12:10;-2.30;99.90
12287;DHT22;6206;53.100;11.098;2022-12-18T02:14:40;-2.20;99.90
12287;DHT22;6206;53.100;11.098;2022-12-18T02:17:10;-2.20;99.90
12287;DHT22;6206;53.100;11.098;2022-12-18T02:19:40;-2.20;99.90
12287;DHT22;6206;53.100;11.098;2022-12-18T02:22:15;-2.20;99.90
12287;DHT22;6206;53.100;11.098;2022-12-18T02:24:45;-2.20;99.90
12287;DHT22;6206;53.100;11.098;2022-12-18T02:27:19;-2.20;99.90
12287;DHT22;6206;53.100;11.098;2022-12-18T02:29:46;-2.30;99.90
12287;DHT22;6206;53.100;11.098;2022-12-18T02:32:15;-2.40;99.90
12287;DHT22;6206;53.100;11.098;2022-12-18T02:34:43;-2.40;99.90
12287;DHT22;6206;53.100;11.098;2022-12-18T02:37:11;-2.40;99.90
12287;DHT22;6206;53.100;11.098;2022-12-18T02:39:39;-2.40;99.90
12287;DHT22;6206;53.100;11.098;2022-12-18T02:42:07;-2.40;99.90
12287;DHT22;6206;53.100;11.098;2022-12-18T02:44:35;-2.50;99.90
12287;DHT22;6206;53.100;11.098;2022-12-18T02:47:08;-2.50;99.90
12287;DHT22;6206;53.100;11.098;2022-12-18T02:52:05;-2.50;99.90
12287;DHT22;6206;53.100;11.098;2022-12-18T02:54:36;-2.50;99.90
12287;DHT22;6206;53.100;11.098;2022-12-18T03:02:00;-2.50;99.90
12287;DHT22;6206;53.100;11.098;2022-12-18T03:04:28;-2.60;99.90
12287;DHT22;6206;53.100;11.098;2022-12-18T03:06:57;-2.70;99.90
12287;DHT22;6206;53.100;11.098;2022-12-18T03:09:27;-2.70;99.90
12287;DHT22;6206;53.100;11.098;2022-12-18T03:11:55;-2.70;99.90
12287;DHT22;6206;53.100;11.098;2022-12-18T03:14:40;-2.80;99.90
12287;DHT22;6206;53.100;11.098;2022-12-18T03:17:10;-2.80;99.90
12287;DHT22;6206;53.100;11.098;2022-12-18T03:19:38;-2.80;99.90
12287;DHT22;6206;53.100;11.098;2022-12-18T03:22:07;-2.80;99.90
12287;DHT22;6206;53.100;11.098;2022-12-18T03:27:02;-2.70;99.90
12287;DHT22;6206;53.100;11.098;2022-12-18T03:29:32;-2.70;99.90
12287;DHT22;6206;53.100;11.098;2022-12-18T03:32:01;-2.70;99.90
12287;DHT22;6206;53.100;11.098;2022-12-18T03:34:31;-2.80;99.90
12287;DHT22;6206;53.100;11.098;2022-12-18T03:39:25;-2.80;99.90
12287;DHT22;6206;53.100;11.098;2022-12-18T03:41:52;-2.90;99.90
12287;DHT22;6206;53.100;11.098;2022-12-18T03:44:23;-2.90;99.90
12287;DHT22;6206;53.100;11.098;2022-12-18T03:46:54;-2.90;99.90
12287;DHT22;6206;53.100;11.098;2022-12-18T03:49:25;-3.00;99.90
12287;DHT22;6206;53.100;11.098;2022-12-18T03:54:22;-3.10;99.90
12287;DHT22;6206;53.100;11.098;2022-12-18T03:56:52;-3.10;99.90
12287;DHT22;6206;53.100;11.098;2022-12-18T03:59:20;-3.10;99.90
12287;DHT22;6206;53.100;11.098;2022-12-18T04:01:49;-3.10;99.90
12287;DHT22;6206;53.100;11.098;2022-12-18T04:04:16;-3.10;99.90
12287;DHT22;6206;53.100;11.098;2022-12-18T04:06:44;-3.10;99.90
12287;DHT22;6206;53.100;11.098;2022-12-18T04:09:12;-3.10;99.90
12287;DHT22;6206;53.100;11.098;2022-12-18T04:11:40;-3.00;99.90
12287;DHT22;6206;53.100;11.098;2022-12-18T04:16:35;-3.00;99.90
12287;DHT22;6206;53.100;11.098;2022-12-18T04:19:02;-3.00;99.90
12287;DHT22;6206;53.100;11.098;2022-12-18T04:21:29;-3.00;99.90
12287;DHT22;6206;53.100;11.098;2022-12-18T04:23:55;-3.10;99.90
12287;DHT22;6206;53.100;11.098;2022-12-18T04:26:22;-3.10;99.90
12287;DHT22;6206;53.100;11.098;2022-12-18T04:28:50;-3.10;99.90
12287;DHT22;6206;53.100;11.098;2022-12-18T04:33:43;-3.20;99.90
12287;DHT22;6206;53.100;11.098;2022-12-18T04:38:37;-3.30;99.90
12287;DHT22;6206;53.100;11.098;2022-12-18T04:46:03;-3.20;99.90
12287;DHT22;6206;53.100;11.098;2022-12-18T04:48:29;-3.20;99.90
12287;DHT22;6206;53.100;11.098;2022-12-18T04:50:56;-3.20;99.90
12287;DHT22;6206;53.100;11.098;2022-12-18T04:53:22;-3.20;99.90
12287;DHT22;6206;53.100;11.098;2022-12-18T05:00:43;-3.20;99.90
12287;DHT22;6206;53.100;11.098;2022-12-18T05:03:11;-3.30;99.90
12287;DHT22;6206;53.100;11.098;2022-12-18T05:05:37;-3.30;99.90
12287;DHT22;6206;53.100;11.098;2022-12-18T05:10:31;-3.20;99.90
12287;DHT22;6206;53.100;11.098;2022-12-18T05:15:24;-3.20;99.90
12287;DHT22;6206;53.100;11.098;2022-12-18T05:17:52;-3.20;99.90
12287;DHT22;6206;53.100;11.098;2022-12-18T05:22:47;-3.30;99.90
12287;DHT22;6206;53.100;11.098;2022-12-18T05:27:40;-3.30;99.90
12287;DHT22;6206;53.100;11.098;2022-12-18T05:35:01;-3.30;99.90
12287;DHT22;6206;53.100;11.098;2022-12-18T05:37:27;-3.30;99.90
12287;DHT22;6206;53.100;11.098;2022-12-18T05:39:55;-3.30;99.90
12287;DHT22;6206;53.100;11.098;2022-12-18T05:42:22;-3.30;99.90
12287;DHT22;6206;53.100;11.098;2022-12-18T05:44:48;-3.30;99.90
12287;DHT22;6206;53.100;11.098;2022-12-18T05:47:15;-3.30;99.90
12287;DHT22;6206;53.100;11.098;2022-12-18T05:49:41;-3.30;99.90
12287;DHT22;6206;53.100;11.098;2022-12-18T05:52:08;-3.30;99.90
12287;DHT22;6206;53.100;11.098;2022-12-18T05:54:35;-3.30;99.90
12287;DHT22;6206;53.100;11.098;2022-12-18T05:57:03;-3.30;99.90
12287;DHT22;6206;53.100;11.098;2022-12-18T06:01:56;-3.20;99.90
12287;DHT22;6206;53.100;11.098;2022-12-18T06:04:23;-3.30;99.90
12287;DHT22;6206;53.100;11.098;2022-12-18T06:06:49;-3.30;99.90
12287;DHT22;6206;53.100;11.098;2022-12-18T06:09:16;-3.40;99.90
12287;DHT22;6206;53.100;11.098;2022-12-18T06:11:42;-3.30;99.90
12287;DHT22;6206;53.100;11.098;2022-12-18T06:14:10;-3.40;99.90
12287;DHT22;6206;53.100;11.098;2022-12-18T06:21:31;-3.40;99.90
12287;DHT22;6206;53.100;11.098;2022-12-18T06:23:58;-3.40;99.90
12287;DHT22;6206;53.100;11.098;2022-12-18T06:26:24;-3.40;99.90
12287;DHT22;6206;53.100;11.098;2022-12-18T06:28:51;-3.30;99.90
12287;DHT22;6206;53.100;11.098;2022-12-18T06:36:12;-3.40;99.90
12287;DHT22;6206;53.100;11.098;2022-12-18T06:38:40;-3.40;99.90
12287;DHT22;6206;53.100;11.098;2022-12-18T06:41:07;-3.50;99.90
12287;DHT22;6206;53.100;11.098;2022-12-18T06:46:01;-3.60;99.90
12287;DHT22;6206;53.100;11.098;2022-12-18T06:48:28;-3.50;99.90
12287;DHT22;6206;53.100;11.098;2022-12-18T06:50:55;-3.50;99.90
12287;DHT22;6206;53.100;11.098;2022-12-18T06:53:23;-3.50;99.90
12287;DHT22;6206;53.100;11.098;2022-12-18T06:55:50;-3.50;99.90
12287;DHT22;6206;53.100;11.098;2022-12-18T06:58:16;-3.60;99.90
12287;DHT22;6206;53.100;11.098;2022-12-18T07:00:43;-3.60;99.90
12287;DHT22;6206;53.100;11.098;2022-12-18T07:03:09;-3.60;99.90
12287;DHT22;6206;53.100;11.098;2022-12-18T07:05:39;-3.60;99.90
12287;DHT22;6206;53.100;11.098;2022-12-18T07:08:05;-3.60;99.90
12287;DHT22;6206;53.100;11.098;2022-12-18T07:13:01;-3.70;99.90
12287;DHT22;6206;53.100;11.098;2022-12-18T07:15:28;-3.70;99.90
12287;DHT22;6206;53.100;11.098;2022-12-18T07:17:54;-3.70;99.90
12287;DHT22;6206;53.100;11.098;2022-12-18T07:20:21;-3.70;99.90
12287;DHT22;6206;53.100;11.098;2022-12-18T07:22:47;-3.70;99.90
12287;DHT22;6206;53.100;11.098;2022-12-18T07:27:41;-3.70;99.90
12287;DHT22;6206;53.100;11.098;2022-12-18T07:30:09;-3.70;99.90
12287;DHT22;6206;53.100;11.098;2022-12-18T07:37:30;-3.70;99.90
12287;DHT22;6206;53.100;11.098;2022-12-18T07:39:56;-3.70;99.90
12287;DHT22;6206;53.100;11.098;2022-12-18T07:42:23;-3.60;99.90
12287;DHT22;6206;53.100;11.098;2022-12-18T07:44:58;-3.70;99.90
12287;DHT22;6206;53.100;11.098;2022-12-18T07:47:26;-3.80;99.90
12287;DHT22;6206;53.100;11.098;2022-12-18T07:49:53;-3.80;99.90
12287;DHT22;6206;53.100;11.098;2022-12-18T07:52:20;-3.80;99.90
12287;DHT22;6206;53.100;11.098;2022-12-18T07:54:46;-3.70;99.90
12287;DHT22;6206;53.100;11.098;2022-12-18T07:57:14;-3.80;99.90
12287;DHT22;6206;53.100;11.098;2022-12-18T07:59:41;-3.80;99.90
12287;DHT22;6206;53.100;11.098;2022-12-18T08:07:03;-3.80;99.90
12287;DHT22;6206;53.100;11.098;2022-12-18T08:09:29;-3.80;99.90
12287;DHT22;6206;53.100;11.098;2022-12-18T08:11:56;-3.80;99.90
12287;DHT22;6206;53.100;11.098;2022-12-18T08:14:22;-3.80;99.90
12287;DHT22;6206;53.100;11.098;2022-12-18T08:16:49;-3.80;99.90
12287;DHT22;6206;53.100;11.098;2022-12-18T08:24:11;-3.70;99.90
12287;DHT22;6206;53.100;11.098;2022-12-18T08:26:37;-3.70;99.90
12287;DHT22;6206;53.100;11.098;2022-12-18T08:31:31;-3.80;99.90
12287;DHT22;6206;53.100;11.098;2022-12-18T08:33:58;-3.80;99.90
12287;DHT22;6206;53.100;11.098;2022-12-18T08:36:24;-3.70;99.90
12287;DHT22;6206;53.100;11.098;2022-12-18T08:38:51;-3.80;99.90
12287;DHT22;6206;53.100;11.098;2022-12-18T08:41:21;-3.60;99.90
12287;DHT22;6206;53.100;11.098;2022-12-18T08:43:48;-3.70;99.90
12287;DHT22;6206;53.100;11.098;2022-12-18T08:48:59;-3.60;99.90
12287;DHT22;6206;53.100;11.098;2022-12-18T08:51:26;-3.60;99.90
12287;DHT22;6206;53.100;11.098;2022-12-18T08:53:52;-3.60;99.90
12287;DHT22;6206;53.100;11.098;2022-12-18T08:56:19;-3.60;99.90
12287;DHT22;6206;53.100;11.098;2022-12-18T08:58:47;-3.60;99.90
12287;DHT22;6206;53.100;11.098;2022-12-18T09:01:13;-3.50;99.90
12287;DHT22;6206;53.100;11.098;2022-12-18T09:03:40;-3.50;99.90
12287;DHT22;6206;53.100;11.098;2022-12-18T09:06:06;-3.50;99.90
12287;DHT22;6206;53.100;11.098;2022-12-18T09:08:33;-3.50;99.90
12287;DHT22;6206;53.100;11.098;2022-12-18T09:11:00;-3.50;99.90
12287;DHT22;6206;53.100;11.098;2022-12-18T09:13:26;-3.50;99.90
12287;DHT22;6206;53.100;11.098;2022-12-18T09:15:54;-3.50;99.90
12287;DHT22;6206;53.100;11.098;2022-12-18T09:20:48;-3.50;99.90
12287;DHT22;6206;53.100;11.098;2022-12-18T09:23:17;-3.40;99.90
12287;DHT22;6206;53.100;11.098;2022-12-18T09:25:43;-3.20;99.90
12287;DHT22;6206;53.100;11.098;2022-12-18T09:33:05;-3.00;99.90
12287;DHT22;6206;53.100;11.098;2022-12-18T09:35:31;-2.90;99.90
12287;DHT22;6206;53.100;11.098;2022-12-18T09:37:58;-2.90;99.90
12287;DHT22;6206;53.100;11.098;2022-12-18T09:40:25;-2.90;99.90
12287;DHT22;6206;53.100;11.098;2022-12-18T09:42:54;-2.90;99.90
12287;DHT22;6206;53.100;11.098;2022-12-18T09:45:21;-2.90;99.90
12287;DHT22;6206;53.100;11.098;2022-12-18T09:50:20;-2.90;99.90
12287;DHT22;6206;53.100;11.098;2022-12-18T09:52:49;-2.80;99.90
12287;DHT22;6206;53.100;11.098;2022-12-18T09:55:25;-2.80;99.90
12287;DHT22;6206;53.100;11.098;2022-12-18T09:57:55;-2.70;99.90
12287;DHT22;6206;53.100;11.098;2022-12-18T10:00:25;-2.60;99.90
12287;DHT22;6206;53.100;11.098;2022-12-18T10:05:24;-2.50;99.90
12287;DHT22;6206;53.100;11.098;2022-12-18T10:07:55;-2.50;99.90
12287;DHT22;6206;53.100;11.098;2022-12-18T10:10:29;-2.40;99.90
12287;DHT22;6206;53.100;11.098;2022-12-18T10:15:27;-2.40;99.90
12287;DHT22;6206;53.100;11.098;2022-12-18T10:17:56;-2.30;99.90
12287;DHT22;6206;53.100;11.098;2022-12-18T10:20:27;-2.30;99.90
12287;DHT22;6206;53.100;11.098;2022-12-18T10:25:23;-2.10;99.90
12287;DHT22;6206;53.100;11.098;2022-12-18T10:27:51;-2.10;99.90
12287;DHT22;6206;53.100;11.098;2022-12-18T10:30:19;-2.00;99.90
12287;DHT22;6206;53.100;11.098;2022-12-18T10:32:46;-2.00;99.90
12287;DHT22;6206;53.100;11.098;2022-12-18T10:35:15;-2.00;99.90
12287;DHT22;6206;53.100;11.098;2022-12-18T10:40:26;-1.90;99.90
12287;DHT22;6206;53.100;11.098;2022-12-18T10:43:03;-1.80;99.90
12287;DHT22;6206;53.100;11.098;2022-12-18T10:45:29;-1.70;99.90
12287;DHT22;6206;53.100;11.098;2022-12-18T10:47:56;-1.70;99.90
12287;DHT22;6206;53.100;11.098;2022-12-18T10:50:24;-1.70;99.90
12287;DHT22;6206;53.100;11.098;2022-12-18T10:55:19;-1.70;99.90
12287;DHT22;6206;53.100;11.098;2022-12-18T10:57:47;-1.80;99.90
12287;DHT22;6206;53.100;11.098;2022-12-18T11:00:21;-1.80;99.90
12287;DHT22;6206;53.100;11.098;2022-12-18T11:02:48;-1.80;99.90
12287;DHT22;6206;53.100;11.098;2022-12-18T11:05:25;-1.80;99.90
12287;DHT22;6206;53.100;11.098;2022-12-18T11:07:52;-1.80;99.90
12287;DHT22;6206;53.100;11.098;2022-12-18T11:10:20;-1.70;99.90
12287;DHT22;6206;53.100;11.098;2022-12-18T11:12:48;-1.60;99.90
12287;DHT22;6206;53.100;11.098;2022-12-18T11:17:42;-1.60;99.90
12287;DHT22;6206;53.100;11.098;2022-12-18T11:22:36;-1.50;99.90
12287;DHT22;6206;53.100;11.098;2022-12-18T11:25:04;-1.50;99.90
12287;DHT22;6206;53.100;11.098;2022-12-18T11:27:31;-1.40;99.90
12287;DHT22;6206;53.100;11.098;2022-12-18T11:30:08;-1.30;99.90
12287;DHT22;6206;53.100;11.098;2022-12-18T11:32:35;-1.30;99.90
12287;DHT22;6206;53.100;11.098;2022-12-18T11:35:04;-1.20;99.90
12287;DHT22;6206;53.100;11.098;2022-12-18T11:40:06;-1.20;99.90
12287;DHT22;6206;53.100;11.098;2022-12-18T11:42:37;-1.20;99.90
12287;DHT22;6206;53.100;11.098;2022-12-18T11:47:36;-1.10;99.90
12287;DHT22;6206;53.100;11.098;2022-12-18T11:52:32;-0.90;99.90
12287;DHT22;6206;53.100;11.098;2022-12-18T11:57:30;-0.70;99.90
12287;DHT22;6206;53.100;11.098;2022-12-18T12:00:02;-0.60;99.90
12287;DHT22;6206;53.100;11.098;2022-12-18T12:07:27;-0.70;99.90
12287;DHT22;6206;53.100;11.098;2022-12-18T12:12:26;-0.70;99.90
12287;DHT22;6206;53.100;11.098;2022-12-18T12:14:55;-0.70;99.90
12287;DHT22;6206;53.100;11.098;2022-12-18T12:17:26;-0.80;99.90
12287;DHT22;6206;53.100;11.098;2022-12-18T12:22:27;-0.90;99.90
12287;DHT22;6206;53.100;11.098;2022-12-18T12:27:28;-1.00;99.90
12287;DHT22;6206;53.100;11.098;2022-12-18T12:30:00;-0.90;99.90
12287;DHT22;6206;53.100;11.098;2022-12-18T12:32:42;-0.90;99.90
12287;DHT22;6206;53.100;11.098;2022-12-18T12:40:10;-0.90;99.90
12287;DHT22;6206;53.100;11.098;2022-12-18T12:42:39;-0.90;99.90
12287;DHT22;6206;53.100;11.098;2022-12-18T12:45:27;-0.90;99.90
12287;DHT22;6206;53.100;11.098;2022-12-18T12:47:54;-0.90;99.90
12287;DHT22;6206;53.100;11.098;2022-12-18T12:50:22;-0.80;99.90
12287;DHT22;6206;53.100;11.098;2022-12-18T12:52:50;-0.70;99.90
12287;DHT22;6206;53.100;11.098;2022-12-18T12:55:19;-0.60;99.90
12287;DHT22;6206;53.100;11.098;2022-12-18T12:57:48;-0.60;99.90
12287;DHT22;6206;53.100;11.098;2022-12-18T13:00:17;-0.60;99.90
12287;DHT22;6206;53.100;11.098;2022-12-18T13:02:47;-0.60;99.90
12287;DHT22;6206;53.100;11.098;2022-12-18T13:05:17;-0.60;99.90
12287;DHT22;6206;53.100;11.098;2022-12-18T13:10:20;-0.50;99.90
12287;DHT22;6206;53.100;11.098;2022-12-18T13:12:54;-0.50;99.90
12287;DHT22;6206;53.100;11.098;2022-12-18T13:15:23;-0.60;99.90
12287;DHT22;6206;53.100;11.098;2022-12-18T13:18:02;-0.50;99.90
12287;DHT22;6206;53.100;11.098;2022-12-18T13:20:32;-0.50;99.90
12287;DHT22;6206;53.100;11.098;2022-12-18T13:22:59;-0.50;99.90
12287;DHT22;6206;53.100;11.098;2022-12-18T13:25:33;-0.40;99.90
12287;DHT22;6206;53.100;11.098;2022-12-18T13:30:42;-0.30;99.90
12287;DHT22;6206;53.100;11.098;2022-12-18T13:36:00;-0.30;99.90
12287;DHT22;6206;53.100;11.098;2022-12-18T13:38:32;-0.30;99.90
12287;DHT22;6206;53.100;11.098;2022-12-18T13:41:00;-0.30;99.90
12287;DHT22;6206;53.100;11.098;2022-12-18T13:43:27;-0.30;99.90
12287;DHT22;6206;53.100;11.098;2022-12-18T13:51:10;-0.30;99.90
12287;DHT22;6206;53.100;11.098;2022-12-18T13:53:38;-0.30;99.90
12287;DHT22;6206;53.100;11.098;2022-12-18T13:58:32;-0.40;99.90
12287;DHT22;6206;53.100;11.098;2022-12-18T14:00:59;-0.30;99.90
12287;DHT22;6206;53.100;11.098;2022-12-18T14:03:27;-0.30;99.90
12287;DHT22;6206;53.100;11.098;2022-12-18T14:05:55;-0.30;99.90
12287;DHT22;6206;53.100;11.098;2022-12-18T14:08:24;-0.20;99.90
12287;DHT22;6206;53.100;11.098;2022-12-18T14:10:52;-0.20;99.90
12287;DHT22;6206;53.100;11.098;2022-12-18T14:13:20;-0.20;99.90
12287;DHT22;6206;53.100;11.098;2022-12-18T14:20:43;-0.20;99.90
12287;DHT22;6206;53.100;11.098;2022-12-18T14:28:31;-0.20;99.90
12287;DHT22;6206;53.100;11.098;2022-12-18T14:30:57;-0.30;99.90
12287;DHT22;6206;53.100;11.098;2022-12-18T14:33:24;-0.40;99.90
12287;DHT22;6206;53.100;11.098;2022-12-18T14:35:53;-0.40;99.90
12287;DHT22;6206;53.100;11.098;2022-12-18T14:38:22;-0.30;99.90
12287;DHT22;6206;53.100;11.098;2022-12-18T14:45:44;-0.30;99.90
12287;DHT22;6206;53.100;11.098;2022-12-18T14:48:13;-0.40;99.90
12287;DHT22;6206;53.100;11.098;2022-12-18T14:50:41;-0.40;99.90
12287;DHT22;6206;53.100;11.098;2022-12-18T14:53:18;-0.30;99.90
12287;DHT22;6206;53.100;11.098;2022-12-18T14:55:44;-0.30;99.90
12287;DHT22;6206;53.100;11.098;2022-12-18T15:03:07;-0.30;99.90
12287;DHT22;6206;53.100;11.098;2022-12-18T15:05:34;-0.30;99.90
12287;DHT22;6206;53.100;11.098;2022-12-18T15:08:01;-0.40;99.90
12287;DHT22;6206;53.100;11.098;2022-12-18T15:10:28;-0.40;99.90
12287;DHT22;6206;53.100;11.098;2022-12-18T15:13:06;-0.40;99.90
12287;DHT22;6206;53.100;11.098;2022-12-18T15:15:46;-0.40;99.90
12287;DHT22;6206;53.100;11.098;2022-12-18T15:20:42;-0.20;99.90
12287;DHT22;6206;53.100;11.098;2022-12-18T15:23:13;-0.20;99.90
12287;DHT22;6206;53.100;11.098;2022-12-18T15:25:40;-0.10;99.90
12287;DHT22;6206;53.100;11.098;2022-12-18T15:28:14;-0.20;99.90
12287;DHT22;6206;53.100;11.098;2022-12-18T15:30:56;-0.30;99.90
12287;DHT22;6206;53.100;11.098;2022-12-18T15:33:24;-0.40;99.90
12287;DHT22;6206;53.100;11.098;2022-12-18T15:35:57;-0.40;99.90
12287;DHT22;6206;53.100;11.098;2022-12-18T15:38:24;-0.50;99.90
12287;DHT22;6206;53.100;11.098;2022-12-18T15:43:17;-0.40;99.90
12287;DHT22;6206;53.100;11.098;2022-12-18T15:45:59;-0.40;99.90
12287;DHT22;6206;53.100;11.098;2022-12-18T15:48:25;-0.40;99.90
12287;DHT22;6206;53.100;11.098;2022-12-18T15:50:52;-0.50;99.90
12287;DHT22;6206;53.100;11.098;2022-12-18T15:55:49;-0.40;99.90
12287;DHT22;6206;53.100;11.098;2022-12-18T15:58:33;-0.50;99.90
12287;DHT22;6206;53.100;11.098;2022-12-18T16:00:59;-0.50;99.90
12287;DHT22;6206;53.100;11.098;2022-12-18T16:03:26;-0.50;99.90
12287;DHT22;6206;53.100;11.098;2022-12-18T16:05:53;-0.50;99.90
12287;DHT22;6206;53.100;11.098;2022-12-18T16:10:46;-0.50;99.90
12287;DHT22;6206;53.100;11.098;2022-12-18T16:13:15;-0.40;99.90
12287;DHT22;6206;53.100;11.098;2022-12-18T16:15:42;-0.50;99.90
12287;DHT22;6206;53.100;11.098;2022-12-18T16:18:09;-0.50;99.90
12287;DHT22;6206;53.100;11.098;2022-12-18T16:23:02;-0.40;99.90
12287;DHT22;6206;53.100;11.098;2022-12-18T16:25:29;-0.40;99.90
12287;DHT22;6206;53.100;11.098;2022-12-18T16:27:55;-0.40;99.90
12287;DHT22;6206;53.100;11.098;2022-12-18T16:30:24;-0.50;99.90
12287;DHT22;6206;53.100;11.098;2022-12-18T16:32:52;-0.50;99.90
12287;DHT22;6206;53.100;11.098;2022-12-18T16:35:19;-0.50;99.90
12287;DHT22;6206;53.100;11.098;2022-12-18T16:37:45;-0.50;99.90
12287;DHT22;6206;53.100;11.098;2022-12-18T16:40:13;-0.50;99.90
12287;DHT22;6206;53.100;11.098;2022-12-18T16:42:40;-0.60;99.90
12287;DHT22;6206;53.100;11.098;2022-12-18T16:45:08;-0.60;99.90
12287;DHT22;6206;53.100;11.098;2022-12-18T16:47:36;-0.60;99.90
12287;DHT22;6206;53.100;11.098;2022-12-18T16:50:03;-0.50;99.90
12287;DHT22;6206;53.100;11.098;2022-12-18T16:52:30;-0.50;99.90
12287;DHT22;6206;53.100;11.098;2022-12-18T16:54:57;-0.50;99.90
12287;DHT22;6206;53.100;11.098;2022-12-18T16:59:50;-0.40;99.90
12287;DHT22;6206;53.100;11.098;2022-12-18T17:02:18;-0.40;99.90
12287;DHT22;6206;53.100;11.098;2022-12-18T17:04:47;-0.50;99.90
12287;DHT22;6206;53.100;11.098;2022-12-18T17:07:14;-0.50;99.90
12287;DHT22;6206;53.100;11.098;2022-12-18T17:09:41;-0.50;99.90
12287;DHT22;6206;53.100;11.098;2022-12-18T17:12:08;-0.50;99.90
12287;DHT22;6206;53.100;11.098;2022-12-18T17:14:34;-0.50;99.90
12287;DHT22;6206;53.100;11.098;2022-12-18T17:17:01;-0.50;99.90
12287;DHT22;6206;53.100;11.098;2022-12-18T17:19:28;-0.50;99.90
12287;DHT22;6206;53.100;11.098;2022-12-18T17:21:56;-0.50;99.90
12287;DHT22;6206;53.100;11.098;2022-12-18T17:26:50;-0.60;99.90
12287;DHT22;6206;53.100;11.098;2022-12-18T17:29:17;-0.50;99.90
12287;DHT22;6206;53.100;11.098;2022-12-18T17:31:45;-0.50;99.90
12287;DHT22;6206;53.100;11.098;2022-12-18T17:34:12;-0.50;99.90
12287;DHT22;6206;53.100;11.098;2022-12-18T17:36:38;-0.60;99.90
12287;DHT22;6206;53.100;11.098;2022-12-18T17:39:07;-0.70;99.90
12287;DHT22;6206;53.100;11.098;2022-12-18T17:41:34;-0.70;99.90
12287;DHT22;6206;53.100;11.098;2022-12-18T17:44:01;-0.60;99.90
12287;DHT22;6206;53.100;11.098;2022-12-18T17:46:28;-0.60;99.90
12287;DHT22;6206;53.100;11.098;2022-12-18T17:48:55;-0.60;99.90
12287;DHT22;6206;53.100;11.098;2022-12-18T17:53:49;-0.70;99.90
12287;DHT22;6206;53.100;11.098;2022-12-18T17:56:17;-0.70;99.90
12287;DHT22;6206;53.100;11.098;2022-12-18T17:58:44;-0.70;99.90
12287;DHT22;6206;53.100;11.098;2022-12-18T18:01:12;-0.80;99.90
12287;DHT22;6206;53.100;11.098;2022-12-18T18:03:39;-0.70;99.90
12287;DHT22;6206;53.100;11.098;2022-12-18T18:06:06;-0.60;99.90
12287;DHT22;6206;53.100;11.098;2022-12-18T18:11:02;-0.60;99.90
12287;DHT22;6206;53.100;11.098;2022-12-18T18:13:51;-0.60;99.90
12287;DHT22;6206;53.100;11.098;2022-12-18T18:18:52;-0.80;99.90
12287;DHT22;6206;53.100;11.098;2022-12-18T18:21:19;-0.80;99.90
12287;DHT22;6206;53.100;11.098;2022-12-18T18:26:13;-0.70;99.90
12287;DHT22;6206;53.100;11.098;2022-12-18T18:31:08;-0.50;99.90
12287;DHT22;6206;53.100;11.098;2022-12-18T18:33:35;-0.50;99.90
12287;DHT22;6206;53.100;11.098;2022-12-18T18:38:29;-0.40;99.90
12287;DHT22;6206;53.100;11.098;2022-12-18T18:40:58;-0.50;99.90
12287;DHT22;6206;53.100;11.098;2022-12-18T18:43:25;-0.60;99.90
12287;DHT22;6206;53.100;11.098;2022-12-18T18:45:53;-0.60;99.90
12287;DHT22;6206;53.100;11.098;2022-12-18T18:50:55;-0.60;99.90
12287;DHT22;6206;53.100;11.098;2022-12-18T18:53:22;-0.60;99.90
12287;DHT22;6206;53.100;11.098;2022-12-18T18:55:48;-0.50;99.90
12287;DHT22;6206;53.100;11.098;2022-12-18T18:58:15;-0.50;99.90
12287;DHT22;6206;53.100;11.098;2022-12-18T19:00:42;-0.50;99.90
12287;DHT22;6206;53.100;11.098;2022-12-18T19:03:08;-0.60;99.90
12287;DHT22;6206;53.100;11.098;2022-12-18T19:05:35;-0.50;99.90
12287;DHT22;6206;53.100;11.098;2022-12-18T19:08:03;-0.50;99.90
12287;DHT22;6206;53.100;11.098;2022-12-18T19:10:30;-0.60;99.90
12287;DHT22;6206;53.100;11.098;2022-12-18T19:12:56;-0.50;99.90
12287;DHT22;6206;53.100;11.098;2022-12-18T19:15:40;-0.50;99.90
12287;DHT22;6206;53.100;11.098;2022-12-18T19:18:07;-0.50;99.90
12287;DHT22;6206;53.100;11.098;2022-12-18T19:20:34;-0.60;99.90
12287;DHT22;6206;53.100;11.098;2022-12-18T19:23:01;-0.60;99.90